MMMXMMIA

Guest
Details From MMMX - Licenciado Benito Juarez Intl
To MMIA - COLIMA
Flight Number -
Tags generated
Created
Modified
Stats Distance 256 nm / 475 km
Max Altitude 28,800 ft / 8,778 m
Waypoints 5
Social Downloads 4
Likes 0
Share VATSIM

Download

Looking for another format? Having issues loading an existing format? Contact us
Advertisement - Login to hide

Notes

Basic altitude profile: - Ascent Rate: 2500ft/min - Ascent Speed: 250kts - Cruise Altitude: 35000ft - Cruise Speed: 420kts - Descent Rate: 1500ft/min - Descent Speed: 250kts Options: - Use NATs: yes - Use PACOTS: yes - Use low airways: no - Use high airways: yes

Route

MMMX TLC UJ18 UPN MMIA

ID Type Via Altitude Latitude Longitude Leg Dist Tot Dist Heading (true) Name
O MMMX APT - 0 ft / 0 m 19.43631˚ -99.07210˚ - 0 nm - Licenciado Benito Juarez Intl
TLC VOR - 10,100 ft / 3,078 m 19.33286˚ -99.56103˚ 28 nm 28 nm 257° / 257° TOLUCA VOR-DME
TUZAS FIX UJ18 (AWY-HI) 28,800 ft / 8,778 m 19.38367˚ -101.12824˚ 88 nm 117 nm 272° / 272° -
UPN VOR UJ18 (AWY-HI) 18,500 ft / 5,639 m 19.39576˚ -102.04109˚ 51 nm 168 nm 271° / 271° URUAPAN VOR-DME
O MMIA APT - 0 ft / 0 m 19.27697˚ -103.57754˚ 87 nm 256 nm 266° / 265° COLIMA

Altitude Profile

Advertisement - Login to hide

Weather


0- 5 10 15 20 25 30 35+ Temperature / ° C

Clouds and Precipitation
Forecast for 2017-12-17 06:00 UTC. Updated an hour ago

Ground ~20,000 ft ~40,000 ft Winds

MMMX

Details ICAO MMMX (MEX)
Name Licenciado Benito Juarez Intl
Region Mexico
Timezone America/Mexico_City (UTC-6.0)
Stats Elevation 7,316 ft / 2,230 m (AMSL)
Location 19.436308° -99.072104°
Runways 2
Magnetic Variation 4.648° E

METAR

Not found

TAF

TAF MMMX 162320Z 1700/1806 18012KT P6SM SCT020 SCT250 TX20/1721Z TN09/1712Z FM170400 20005KT P6SM BKN250 FM171600 20012KT P6SM SCT100 OVC250 FM180200 20005KT P6SM SCT080 OVC250

Decode

Departure Runways

ID Width Length Bearing (true) Bearing (mag) Surface Threshold Offset Overrun Length
05L 148 ft / 45 m 12,951 ft / 3,948 m 59.25° 54.60° Asphalt 1,033 ft / 315 m 0 ft / 0 m
05R 148 ft / 45 m 12,800 ft / 3,902 m 59.26° 54.61° Asphalt 1,493 ft / 455 m 0 ft / 0 m
23L 148 ft / 45 m 12,800 ft / 3,902 m 239.28° 234.63° Asphalt 0 ft / 0 m 200 ft / 61 m
23R 148 ft / 45 m 12,951 ft / 3,948 m 239.27° 234.62° Asphalt 1,640 ft / 500 m 0 ft / 0 m

MMIA

Details ICAO MMIA (CLQ)
Name COLIMA
Region Mexico
Timezone America/Mexico_City (UTC-6.0)
Stats Elevation 2,467 ft / 752 m (AMSL)
Location 19.276968° -103.577536°
Runways 1
Magnetic Variation 6.319° E

METAR

Not found

TAF

TAF AMD MMIA 170005Z 1700/1718 00000KT P6SM SCT030 BKN200 FM170300 04005KT 5SM HZ SCT020 BKN200 TEMPO 1710/1714 3SM BR

Decode

Destination Runways

ID Width Length Bearing (true) Bearing (mag) Surface Threshold Offset Overrun Length
07 148 ft / 45 m 7,533 ft / 2,296 m 73.78° 67.46° Asphalt 0 ft / 0 m 200 ft / 61 m
25 148 ft / 45 m 7,533 ft / 2,296 m 253.79° 247.47° Asphalt 0 ft / 0 m 200 ft / 61 m

Popular Alternatives